Time;durP1;ratioP1;P1;durP2;ratioP2;P2;SDS_P1;SDS_P2;PMS_P1;PMS_P2;Temp;Humidity;BMP_temperature;BMP_pressure;BME280_temperature;BME280_humidity;BME280_pressure;Samples;Min_cycle;Max_cycle;Signal;HPM_P1;HPM_P2
2024/03/21 00:01:33;;;;;;;7.10;2.50;;;;;;;11.10;39.71;99269.53;4962255;28;20686;-81
2024/03/21 00:03:59;;;;;;;4.65;2.83;;;;;;;11.06;39.66;99268.94;4947389;28;20096;-81
2024/03/21 00:06:25;;;;;;;5.00;2.67;;;;;;;10.95;40.23;99259.22;4961973;28;20612;-81
2024/03/21 00:08:51;;;;;;;5.72;2.70;;;;;;;10.94;40.16;99265.41;4961863;28;20042;-81
2024/03/21 00:11:16;;;;;;;5.00;2.80;;;;;;;10.90;40.24;99255.28;4945927;28;20061;-81
2024/03/21 00:13:42;;;;;;;4.05;2.45;;;;;;;10.84;40.22;99248.69;4961925;28;20065;-82
2024/03/21 00:16:07;;;;;;;3.95;2.47;;;;;;;10.79;40.17;99248.19;4946429;28;20037;-81
2024/03/21 00:18:33;;;;;;;3.63;2.58;;;;;;;10.76;39.99;99240.56;4961617;28;20129;-81
2024/03/21 00:20:58;;;;;;;5.18;2.47;;;;;;;10.79;40.02;99245.56;4945040;28;20568;-81
2024/03/21 00:23:25;;;;;;;4.07;2.45;;;;;;;10.68;39.86;99252.34;4977899;28;20038;-82
2024/03/21 00:25:50;;;;;;;4.40;2.78;;;;;;;10.71;39.85;99255.72;4978076;28;20022;-82
2024/03/21 00:28:16;;;;;;;4.45;2.50;;;;;;;10.62;39.95;99252.75;4977619;28;20038;-83
2024/03/21 00:30:43;;;;;;;4.07;2.38;;;;;;;10.56;40.04;99241.91;4977950;28;20037;-83
2024/03/21 00:33:10;;;;;;;5.82;2.45;;;;;;;10.49;40.34;99241.50;4961700;28;20100;-83
2024/03/21 00:35:36;;;;;;;6.15;3.05;;;;;;;10.41;40.10;99230.75;4945186;28;20031;-83
2024/03/21 00:38:01;;;;;;;6.47;4.22;;;;;;;10.44;40.20;99240.97;4945285;28;20053;-82
2024/03/21 00:40:27;;;;;;;9.18;5.05;;;;;;;10.34;40.32;99222.47;4960557;28;20034;-83
2024/03/21 00:42:52;;;;;;;15.93;8.23;;;;;;;10.31;40.25;99226.13;4945153;28;20485;-82
2024/03/21 00:45:18;;;;;;;16.55;8.38;;;;;;;10.30;40.71;99224.44;4945012;28;20037;-83
2024/03/21 00:47:43;;;;;;;16.65;10.10;;;;;;;10.29;40.51;99219.31;4960966;28;20054;-82
2024/03/21 00:50:09;;;;;;;18.33;10.73;;;;;;;10.29;40.66;99221.94;4961316;28;20026;-84
2024/03/21 00:52:34;;;;;;;18.17;10.25;;;;;;;10.28;40.58;99213.28;4945081;28;20038;-81
2024/03/21 00:55:00;;;;;;;14.73;8.90;;;;;;;10.28;40.48;99221.09;4976951;28;20059;-83
2024/03/21 00:57:27;;;;;;;14.02;8.50;;;;;;;10.20;40.65;99202.53;4994184;28;20101;-81
2024/03/21 00:59:53;;;;;;;12.95;8.10;;;;;;;10.25;40.42;99207.44;4961462;28;20034;-83
2024/03/21 01:02:19;;;;;;;16.88;7.93;;;;;;;10.21;40.54;99200.75;4960688;28;20034;-81
2024/03/21 01:04:50;;;;;;;11.32;6.60;;;;;;;10.15;40.62;99196.75;4959048;28;20125;-81
2024/03/21 01:07:18;;;;;;;10.60;6.03;;;;;;;10.05;40.71;99193.09;4994474;28;20030;-81
2024/03/21 01:09:47;;;;;;;9.48;5.10;;;;;;;10.03;40.85;99192.38;4960840;28;20049;-83
2024/03/21 01:12:12;;;;;;;8.38;4.90;;;;;;;9.99;40.90;99194.34;4976811;28;20042;-81
2024/03/21 01:14:38;;;;;;;9.38;4.60;;;;;;;9.88;41.09;99189.88;4976771;28;20026;-81
2024/03/21 01:17:03;;;;;;;8.85;4.97;;;;;;;9.87;41.04;99182.97;4944935;28;20031;-82
2024/03/21 01:19:29;;;;;;;7.45;4.05;;;;;;;9.82;41.24;99179.84;4960299;28;20038;-82
2024/03/21 01:21:55;;;;;;;6.00;3.67;;;;;;;9.74;41.15;99169.06;4960137;28;20052;-81
2024/03/21 01:24:20;;;;;;;9.48;4.13;;;;;;;9.74;41.47;99176.88;4993165;28;20066;-83
2024/03/21 01:26:45;;;;;;;10.82;3.95;;;;;;;9.74;41.19;99182.94;4992553;28;20056;-81
2024/03/21 01:29:11;;;;;;;11.45;4.10;;;;;;;9.68;41.22;99174.69;4992778;28;20498;-81
2024/03/21 01:31:36;;;;;;;7.32;3.67;;;;;;;9.66;41.37;99169.59;4992482;28;20030;-82
2024/03/21 01:34:02;;;;;;;7.45;4.03;;;;;;;9.68;41.25;99180.75;4976028;28;20097;-81
2024/03/21 01:36:30;;;;;;;9.00;3.80;;;;;;;9.67;41.48;99178.22;4959998;28;20039;-82
2024/03/21 01:38:55;;;;;;;7.05;4.13;;;;;;;9.64;41.39;99181.84;4992749;28;20031;-82
2024/03/21 01:41:21;;;;;;;7.28;4.07;;;;;;;9.60;41.74;99183.00;4976171;28;20497;-81
2024/03/21 01:43:46;;;;;;;7.45;3.90;;;;;;;9.56;41.55;99182.34;4992242;28;20097;-81
2024/03/21 01:46:21;;;;;;;9.70;4.15;;;;;;;9.53;41.97;99171.31;4991511;28;20049;-81
2024/03/21 01:48:48;;;;;;;7.78;3.60;;;;;;;9.51;41.99;99174.00;4992100;28;20445;-81
2024/03/21 01:51:14;;;;;;;9.15;3.85;;;;;;;9.46;42.07;99181.28;4976151;28;20034;-81
2024/03/21 01:53:40;;;;;;;9.25;3.78;;;;;;;9.45;42.19;99181.41;4975594;28;20038;-81
2024/03/21 01:56:06;;;;;;;6.72;4.03;;;;;;;9.42;42.03;99179.81;4959698;28;20026;-82
2024/03/21 01:58:32;;;;;;;9.20;3.92;;;;;;;9.39;42.04;99175.66;4975695;28;20081;-81
2024/03/21 02:00:57;;;;;;;8.60;4.22;;;;;;;9.40;42.24;99176.47;4991992;28;20034;-81
2024/03/21 02:03:23;;;;;;;8.93;3.60;;;;;;;9.36;41.98;99173.25;4975435;28;20488;-81
2024/03/21 02:05:48;;;;;;;6.07;3.65;;;;;;;9.35;41.98;99168.94;4991977;28;20142;-81
2024/03/21 02:08:13;;;;;;;9.88;3.92;;;;;;;9.34;42.03;99166.44;4975230;28;20104;-81
2024/03/21 02:10:39;;;;;;;9.52;4.93;;;;;;;9.29;42.23;99160.69;4975260;28;20073;-81
2024/03/21 02:13:06;;;;;;;17.70;7.88;;;;;;;9.27;42.33;99159.97;4992137;28;20065;-81
2024/03/21 02:15:31;;;;;;;17.15;8.65;;;;;;;9.26;42.33;99155.69;4975954;28;20023;-81
2024/03/21 02:17:58;;;;;;;18.52;10.05;;;;;;;9.24;42.38;99161.81;4992302;28;20041;-82
2024/03/21 02:20:24;;;;;;;26.23;13.57;;;;;;;9.21;42.26;99158.59;4976578;28;20109;-81
2024/03/21 02:22:49;;;;;;;27.15;14.10;;;;;;;9.19;42.47;99157.84;4959292;28;20085;-81
2024/03/21 02:25:15;;;;;;;21.75;13.50;;;;;;;9.16;42.67;99164.09;4975281;28;20038;-82
2024/03/21 02:27:41;;;;;;;24.77;12.43;;;;;;;9.13;42.56;99151.25;4975950;28;20030;-82
2024/03/21 02:30:07;;;;;;;20.50;11.77;;;;;;;9.13;42.32;99158.25;4992228;28;20034;-81
2024/03/21 02:32:35;;;;;;;19.90;10.23;;;;;;;9.09;42.72;99151.53;4959217;28;20096;-82
2024/03/21 02:35:02;;;;;;;15.55;9.25;;;;;;;9.05;42.55;99151.75;4975982;28;20044;-82
2024/03/21 02:37:27;;;;;;;16.73;8.93;;;;;;;9.08;42.69;99148.13;4975070;28;20058;-81
2024/03/21 02:39:53;;;;;;;14.65;8.10;;;;;;;9.09;42.72;99144.56;4991922;28;20454;-81
2024/03/21 02:42:21;;;;;;;14.20;7.97;;;;;;;9.09;42.91;99139.34;4975479;28;20030;-81
2024/03/21 02:44:47;;;;;;;;;;;;;;;9.09;42.71;99139.34;4991967;28;20437;-81
2024/03/21 02:47:13;;;;;;;11.48;6.57;;;;;;;9.05;43.06;99136.13;4991408;28;19924;-82
2024/03/21 02:49:39;;;;;;;10.75;6.05;;;;;;;9.02;43.00;99130.28;4959671;28;20023;-81
2024/03/21 02:52:05;;;;;;;9.13;5.45;;;;;;;9.00;43.10;99132.16;4975376;28;20520;-81
2024/03/21 02:54:31;;;;;;;8.20;5.20;;;;;;;8.94;43.34;99116.91;4975495;28;20069;-81
2024/03/21 02:57:04;;;;;;;9.98;5.25;;;;;;;8.92;42.91;99114.41;4975180;28;20096;-81
2024/03/21 02:59:32;;;;;;;7.38;5.28;;;;;;;8.94;43.18;99127.31;4958642;28;20023;-81
2024/03/21 03:01:57;;;;;;;7.10;4.37;;;;;;;8.96;43.40;99126.28;4974795;28;20105;-81
2024/03/21 03:04:23;;;;;;;8.25;4.82;;;;;;;8.77;43.41;99095.38;4975198;28;20440;-81
2024/03/21 03:06:48;;;;;;;7.97;4.85;;;;;;;8.88;43.09;99118.13;4974547;28;20045;-81
2024/03/21 03:09:14;;;;;;;5.97;4.20;;;;;;;8.91;43.54;99120.53;4958453;28;20062;-81
2024/03/21 03:11:39;;;;;;;7.30;4.45;;;;;;;8.91;43.71;99120.53;4992061;28;20038;-82
2024/03/21 03:14:05;;;;;;;6.22;4.55;;;;;;;8.91;43.32;99119.72;4975451;28;20121;-81
2024/03/21 03:16:31;;;;;;;7.82;4.18;;;;;;;8.87;43.55;99113.84;4975051;28;20084;-81
2024/03/21 03:18:56;;;;;;;9.15;4.10;;;;;;;8.85;43.49;99116.53;4975311;28;20418;-81
2024/03/21 03:21:22;;;;;;;6.65;4.10;;;;;;;8.82;43.64;99115.91;4974885;28;20035;-82
2024/03/21 03:23:47;;;;;;;8.10;3.78;;;;;;;8.75;43.61;99107.66;4975180;28;20498;-81
2024/03/21 03:26:12;;;;;;;8.27;4.18;;;;;;;8.72;43.89;99110.44;4991248;28;20026;-81
2024/03/21 03:28:38;;;;;;;7.60;3.33;;;;;;;8.73;43.72;99109.53;4976073;28;20042;-81
2024/03/21 03:31:03;;;;;;;7.53;3.70;;;;;;;8.77;43.52;99120.56;4994743;28;20042;-81
2024/03/21 03:36:13;;;;;;;5.70;3.75;;;;;;;8.71;43.54;99111.38;4996407;28;20037;-81
2024/03/21 03:38:38;;;;;;;8.13;3.97;;;;;;;8.63;43.90;99106.66;4978411;28;20125;-81
2024/03/21 03:41:04;;;;;;;5.38;3.28;;;;;;;8.68;43.83;99114.16;4978126;28;20086;-81
2024/03/21 03:43:29;;;;;;;7.45;3.67;;;;;;;8.68;43.50;99122.81;4978516;28;20116;-81
2024/03/21 03:45:55;;;;;;;8.57;3.60;;;;;;;8.66;43.56;99114.25;4994651;28;20027;-82
2024/03/21 03:48:20;;;;;;;6.53;3.55;;;;;;;8.68;43.84;99114.16;4994286;28;20053;-81
2024/03/21 03:50:46;;;;;;;8.50;3.70;;;;;;;8.55;44.07;99093.28;4978210;28;20034;-81
2024/03/21 03:53:11;;;;;;;5.55;3.20;;;;;;;8.61;44.00;99118.09;4978299;28;20425;-80
2024/03/21 03:55:37;;;;;;;6.82;3.75;;;;;;;8.56;43.74;99120.97;4978486;28;20041;-81
2024/03/21 03:58:02;;;;;;;5.90;3.17;;;;;;;8.55;44.15;99116.69;4994637;28;20100;-81
2024/03/21 04:00:28;;;;;;;4.40;3.30;;;;;;;8.57;44.08;99138.28;4994431;28;20502;-83
2024/03/21 04:02:54;;;;;;;4.45;3.15;;;;;;;8.55;43.90;99134.06;4979573;28;20058;-81
2024/03/21 04:05:20;;;;;;;5.82;3.40;;;;;;;8.53;44.48;99128.97;4962681;28;20034;-82
2024/03/21 04:07:46;;;;;;;6.80;3.50;;;;;;;8.53;44.13;99130.75;4978042;28;20038;-82
2024/03/21 04:10:11;;;;;;;5.22;3.38;;;;;;;8.53;44.49;99126.38;4977851;28;20359;-82
2024/03/21 04:12:39;;;;;;;6.35;3.30;;;;;;;8.49;44.40;99136.13;4961723;28;20049;-82
2024/03/21 04:15:05;;;;;;;5.20;3.40;;;;;;;8.50;44.31;99131.75;4961723;28;20513;-83
2024/03/21 04:17:30;;;;;;;5.85;3.60;;;;;;;8.47;44.51;99131.94;4976690;28;20030;-82
2024/03/21 04:19:55;;;;;;;5.63;3.42;;;;;;;8.48;44.10;99134.44;4976638;28;20037;-84
2024/03/21 04:22:21;;;;;;;6.95;3.38;;;;;;;8.50;44.28;99135.19;4978686;28;20393;-84
2024/03/21 04:24:47;;;;;;;5.55;3.22;;;;;;;8.58;44.34;99133.91;4977014;28;20101;-83
2024/03/21 04:27:12;;;;;;;5.90;3.58;;;;;;;8.71;43.61;99123.56;4961893;28;20394;-82
2024/03/21 04:29:38;;;;;;;5.68;3.42;;;;;;;9.08;43.24;99132.50;4961602;28;20082;-82
2024/03/21 04:32:04;;;;;;;5.43;3.40;;;;;;;9.56;42.48;99132.84;4962038;28;20062;-82
2024/03/21 04:34:29;;;;;;;5.90;3.55;;;;;;;10.10;41.48;99129.28;4978362;28;20045;-80
2024/03/21 04:36:55;;;;;;;5.93;3.25;;;;;;;10.74;40.12;99132.78;4978629;28;20034;-86
2024/03/21 04:39:20;;;;;;;6.07;3.80;;;;;;;11.37;39.05;99129.06;4962416;28;20057;-87
2024/03/21 04:41:46;;;;;;;6.13;3.70;;;;;;;12.03;38.06;99131.19;4961322;28;20409;-83
2024/03/21 04:44:11;;;;;;;9.68;3.40;;;;;;;13.37;64.61;99135.59;4961623;28;20042;-91
2024/03/21 04:46:37;;;;;;;12.20;2.95;;;;;;;13.99;51.30;99120.00;4961410;28;20025;-81
2024/03/21 04:49:02;;;;;;;6.57;3.10;;;;;;;14.58;46.53;99118.47;4960850;28;20051;-80
2024/03/21 04:51:28;;;;;;;6.78;3.13;;;;;;;15.30;44.08;99122.66;4960681;28;20038;-79
2024/03/21 04:53:53;;;;;;;7.63;3.60;;;;;;;15.98;39.84;99113.06;4961734;28;20100;-79
2024/03/21 04:56:19;;;;;;;10.13;2.50;;;;;;;16.65;45.83;99116.41;4961652;28;20030;-79
2024/03/21 04:58:44;;;;;;;5.00;3.10;;;;;;;17.64;43.97;99127.97;4961173;28;20084;-80
2024/03/21 05:01:10;;;;;;;6.82;3.60;;;;;;;18.19;37.15;99124.25;4994655;28;20026;-78
2024/03/21 05:03:36;;;;;;;4.78;3.55;;;;;;;18.71;34.29;99120.69;4977429;28;20080;-80
2024/03/21 05:06:02;;;;;;;9.15;4.15;;;;;;;19.19;32.50;99116.53;4944753;28;20045;-86
2024/03/21 05:08:28;;;;;;;8.15;4.70;;;;;;;19.70;31.03;99100.50;4945678;28;20065;-82
2024/03/21 05:10:53;;;;;;;6.95;3.78;;;;;;;20.25;29.84;99105.03;4960785;28;20042;-83
2024/03/21 05:13:19;;;;;;;7.18;3.72;;;;;;;20.70;31.45;99110.72;4960969;28;20041;-77
2024/03/21 05:15:48;;;;;;;6.15;3.80;;;;;;;21.21;28.92;99109.44;4992199;28;20054;-78
2024/03/21 05:18:14;;;;;;;6.55;3.83;;;;;;;21.70;27.63;99114.38;4958409;28;20755;-77
2024/03/21 05:20:39;;;;;;;7.93;3.85;;;;;;;22.10;26.54;99107.00;4958683;28;20031;-82
2024/03/21 05:23:05;;;;;;;6.18;3.92;;;;;;;22.44;25.10;99103.03;4959614;28;20041;-79
2024/03/21 05:25:34;;;;;;;11.32;3.78;;;;;;;22.81;24.22;99114.50;4960039;28;20086;-78
2024/03/21 05:27:59;;;;;;;5.90;4.25;;;;;;;23.16;23.50;99104.06;4945143;28;20057;-77
2024/03/21 05:30:25;;;;;;;7.55;4.13;;;;;;;23.49;22.81;99101.69;4941986;28;20085;-79
2024/03/21 05:32:50;;;;;;;7.93;4.90;;;;;;;23.87;22.14;99105.94;4925687;28;20047;-80
2024/03/21 05:35:16;;;;;;;7.50;4.30;;;;;;;24.22;22.15;99091.78;4923586;28;20101;-80
2024/03/21 05:37:41;;;;;;;8.63;4.72;;;;;;;24.58;21.39;99098.78;4939918;28;20051;-78
2024/03/21 05:40:08;;;;;;;9.75;4.75;;;;;;;24.90;21.08;99097.22;4940213;28;20414;-77
2024/03/21 05:42:33;;;;;;;8.18;4.78;;;;;;;25.18;20.65;99090.94;4938878;28;20043;-80
2024/03/21 05:44:59;;;;;;;7.72;4.47;;;;;;;25.44;20.81;99096.34;4923273;28;20035;-78
2024/03/21 05:47:24;;;;;;;9.52;4.78;;;;;;;25.70;20.03;99099.22;4955129;28;20563;-79
2024/03/21 05:49:50;;;;;;;8.35;4.60;;;;;;;25.87;19.46;99094.22;4938089;28;20129;-78
2024/03/21 05:52:16;;;;;;;13.93;4.90;;;;;;;26.06;19.66;99096.09;4938712;28;20027;-78
2024/03/21 05:54:42;;;;;;;11.65;4.78;;;;;;;26.31;18.99;99096.25;4922761;28;20037;-78
2024/03/21 05:57:08;;;;;;;9.23;4.47;;;;;;;26.48;18.96;99093.09;4923712;28;20047;-79
2024/03/21 05:59:34;;;;;;;7.97;4.53;;;;;;;26.65;18.68;99088.94;4925006;28;20033;-80
2024/03/21 06:02:00;;;;;;;11.20;4.95;;;;;;;26.91;18.65;99092.50;4941062;28;20061;-78
2024/03/21 06:04:25;;;;;;;8.68;5.00;;;;;;;27.10;18.35;99090.72;4941240;28;20034;-80
2024/03/21 06:06:50;;;;;;;17.33;3.33;;;;;;;27.30;22.78;99092.47;4940698;28;20069;-79
2024/03/21 06:09:21;;;;;;;15.27;2.72;;;;;;;27.56;27.49;99096.81;4956597;28;20435;-79
2024/03/21 06:11:47;;;;;;;8.93;3.10;;;;;;;27.69;27.73;99093.19;4925686;28;20070;-76
2024/03/21 06:14:12;;;;;;;7.68;2.60;;;;;;;27.83;27.87;99089.34;4956441;28;20042;-74
2024/03/21 06:16:38;;;;;;;8.32;3.05;;;;;;;27.91;27.09;99080.19;4956920;28;20030;-76
2024/03/21 06:19:03;;;;;;;12.18;5.30;;;;;;;28.02;26.59;99090.22;4956140;28;20597;-74
2024/03/21 06:21:28;;;;;;;11.30;4.82;;;;;;;28.05;25.35;99073.69;4974524;28;20045;-78
2024/03/21 06:23:54;;;;;;;9.20;4.80;;;;;;;28.20;23.99;99073.34;4956911;28;20485;-80
2024/03/21 06:26:19;;;;;;;7.65;3.28;;;;;;;28.25;23.95;99067.28;4940237;28;20070;-77
2024/03/21 06:28:45;;;;;;;8.10;4.18;;;;;;;28.30;23.38;99072.81;4940274;28;20134;-79
2024/03/21 06:31:10;;;;;;;7.40;3.92;;;;;;;28.34;24.85;99074.81;4940522;28;20093;-78
2024/03/21 06:33:36;;;;;;;12.95;6.35;;;;;;;28.38;25.17;99074.38;4956771;28;20471;-77
2024/03/21 06:36:02;;;;;;;8.27;3.42;;;;;;;28.46;25.92;99068.69;4924389;28;20058;-76
2024/03/21 06:38:27;;;;;;;13.40;5.85;;;;;;;28.53;23.84;99069.44;4940236;28;20063;-76
2024/03/21 06:40:53;;;;;;;9.25;4.32;;;;;;;28.61;23.37;99066.47;4924106;28;20049;-75
2024/03/21 06:43:18;;;;;;;6.55;3.85;;;;;;;28.68;22.67;99066.34;4923515;28;20035;-77
2024/03/21 06:45:48;;;;;;;10.20;3.80;;;;;;;28.77;22.61;99067.69;4924159;28;20038;-77
2024/03/21 06:48:13;;;;;;;8.85;3.28;;;;;;;28.93;22.66;99068.91;4941156;28;20065;-75
2024/03/21 06:50:41;;;;;;;9.48;3.83;;;;;;;29.01;22.22;99081.19;4955892;28;20406;-74
2024/03/21 06:53:06;;;;;;;12.23;3.95;;;;;;;29.01;22.11;99076.63;4973113;28;20031;-77
2024/03/21 06:55:35;;;;;;;14.45;5.72;;;;;;;29.01;24.13;99079.31;4932503;28;20042;-82
2024/03/21 06:58:00;;;;;;;23.13;6.70;;;;;;;29.11;22.12;99077.94;4973199;28;20125;-82
2024/03/21 07:00:27;;;;;;;17.73;6.10;;;;;;;29.28;20.92;99076.25;4955923;28;20391;-85
2024/03/21 07:02:54;;;;;;;16.83;6.10;;;;;;;29.44;21.74;99073.97;4942322;28;20134;-81
2024/03/21 07:05:20;;;;;;;17.83;6.63;;;;;;;29.61;21.78;99082.16;4927773;28;20046;-81
2024/03/21 07:07:46;;;;;;;21.77;6.40;;;;;;;29.72;20.19;99079.47;4960123;28;20034;-84
2024/03/21 07:10:13;;;;;;;21.80;6.53;;;;;;;29.74;20.74;99077.34;4943449;28;20031;-84
2024/03/21 07:12:38;;;;;;;15.52;6.22;;;;;;;29.91;20.46;99080.19;4932673;28;20038;-86
2024/03/21 07:15:05;;;;;;;15.85;5.97;;;;;;;30.00;20.05;99071.75;4945826;28;20047;-83
2024/03/21 07:17:30;;;;;;;15.20;5.35;;;;;;;30.19;20.68;99075.94;4943989;28;20038;-83
2024/03/21 07:19:56;;;;;;;19.50;5.85;;;;;;;30.29;20.21;99068.06;4993717;28;20038;-82
2024/03/21 07:22:21;;;;;;;13.35;6.90;;;;;;;30.48;19.75;99074.13;4963270;28;20038;-82
2024/03/21 07:24:47;;;;;;;18.00;6.05;;;;;;;30.52;20.02;99065.56;4963166;28;20400;-83
2024/03/21 07:27:13;;;;;;;11.65;5.22;;;;;;;30.25;21.07;99063.41;4979163;28;20059;-85
2024/03/21 07:29:41;;;;;;;13.57;6.30;;;;;;;29.64;20.55;99063.69;4979109;28;20466;-82
2024/03/21 07:32:08;;;;;;;13.23;6.03;;;;;;;29.40;20.44;99066.34;4947272;28;20172;-84
2024/03/21 07:34:34;;;;;;;9.20;5.47;;;;;;;29.12;20.70;99066.16;4946786;28;20053;-90
2024/03/21 07:37:01;;;;;;;10.57;5.65;;;;;;;28.97;20.71;99066.56;4947254;28;20354;-78
2024/03/21 07:39:26;;;;;;;12.98;5.07;;;;;;;28.95;21.33;99066.00;4979356;28;20499;-77
2024/03/21 07:41:52;;;;;;;17.70;5.47;;;;;;;29.47;22.25;99065.44;4995593;28;20026;-80
2024/03/21 07:44:17;;;;;;;10.45;4.93;;;;;;;29.94;21.27;99054.69;4946118;28;20161;-80
2024/03/21 07:46:44;;;;;;;20.02;5.70;;;;;;;30.36;20.20;99065.22;4962116;28;20038;-78
2024/03/21 07:49:10;;;;;;;10.52;5.18;;;;;;;29.86;19.90;99061.25;4946421;28;20579;-78
2024/03/21 07:51:36;;;;;;;10.23;4.65;;;;;;;29.11;20.68;99062.63;4962774;28;20030;-75
2024/03/21 07:54:01;;;;;;;8.25;4.53;;;;;;;29.37;21.10;99060.63;4996068;28;20030;-75
2024/03/21 07:56:27;;;;;;;10.05;4.93;;;;;;;32.15;18.68;99063.97;4945896;28;20062;-76
2024/03/21 07:58:52;;;;;;;17.08;4.20;;;;;;;33.96;17.47;99055.63;4977888;28;20056;-75
2024/03/21 08:01:19;;;;;;;9.43;3.92;;;;;;;34.84;16.60;99060.31;4978110;28;20069;-73
2024/03/21 08:03:44;;;;;;;16.33;4.25;;;;;;;34.88;14.97;99052.44;4978346;28;20414;-74
2024/03/21 08:06:10;;;;;;;14.40;3.70;;;;;;;34.05;16.74;99060.28;4946124;28;20019;-74
2024/03/21 08:08:35;;;;;;;11.32;3.88;;;;;;;33.60;17.75;99045.38;4978185;28;20072;-77
2024/03/21 08:11:01;;;;;;;9.27;3.35;;;;;;;32.86;18.02;99032.59;4961831;28;20038;-75
2024/03/21 08:13:27;;;;;;;5.90;3.17;;;;;;;32.63;18.18;99024.56;4945402;28;20054;-76
2024/03/21 08:15:55;;;;;;;7.30;3.10;;;;;;;32.35;15.37;99033.69;4962087;28;20125;-75
2024/03/21 08:18:22;;;;;;;6.30;3.10;;;;;;;31.69;16.11;99037.16;4962561;28;20057;-83
2024/03/21 08:20:47;;;;;;;10.25;3.30;;;;;;;31.39;16.28;99032.91;4978216;28;20054;-78
2024/03/21 08:23:13;;;;;;;8.40;2.65;;;;;;;31.33;15.86;99033.88;4945924;28;20513;-80
2024/03/21 08:25:39;;;;;;;13.52;2.95;;;;;;;31.17;18.58;99032.84;4962316;28;20038;-82
2024/03/21 08:28:04;;;;;;;13.52;3.00;;;;;;;31.03;19.94;99020.72;4995541;28;20041;-86
2024/03/21 08:30:30;;;;;;;15.38;2.80;;;;;;;30.92;19.74;99022.41;4961982;28;20022;-81
2024/03/21 08:32:55;;;;;;;5.35;2.53;;;;;;;30.72;19.12;99013.97;4978069;28;20062;-82
2024/03/21 08:35:21;;;;;;;4.68;2.42;;;;;;;30.71;18.91;99021.25;4978079;28;20057;-81
2024/03/21 08:37:46;;;;;;;4.43;2.58;;;;;;;30.64;19.12;99026.75;4962501;28;20108;-81
2024/03/21 08:40:13;;;;;;;5.32;2.40;;;;;;;30.44;18.97;99016.44;4962132;28;20104;-80
2024/03/21 08:42:40;;;;;;;14.73;2.72;;;;;;;30.37;19.59;99015.72;4947140;28;20062;-84
2024/03/21 08:45:09;;;;;;;11.75;2.80;;;;;;;30.59;20.63;99009.69;4952301;28;20117;-78
2024/03/21 08:47:35;;;;;;;8.35;2.95;;;;;;;30.56;19.85;99010.19;4978841;28;20489;-79
2024/03/21 08:50:00;;;;;;;9.18;2.65;;;;;;;30.32;17.80;99002.16;4960780;28;20046;-79
2024/03/21 08:52:26;;;;;;;6.03;2.53;;;;;;;30.27;17.39;98996.69;4946633;28;20405;-86
2024/03/21 08:54:51;;;;;;;5.22;2.50;;;;;;;29.81;17.27;98995.72;4999997;28;20026;-93
2024/03/21 08:57:17;;;;;;;6.10;2.30;;;;;;;29.75;18.63;98992.09;4977357;28;20050;-90
2024/03/21 08:59:43;;;;;;;6.68;2.58;;;;;;;29.56;18.79;98992.22;4960352;28;20030;-90
2024/03/21 09:02:10;;;;;;;4.72;2.60;;;;;;;28.43;17.92;98989.44;4970207;28;20046;-90
2024/03/21 09:04:35;;;;;;;6.45;2.65;;;;;;;28.67;20.24;99003.78;5004076;28;20093;-89
2024/03/21 09:07:01;;;;;;;8.32;2.42;;;;;;;28.39;20.47;98976.69;4953940;28;20035;-91
2024/03/21 09:09:26;;;;;;;9.00;2.55;;;;;;;28.51;20.57;98978.38;5001123;28;20339;-88
2024/03/21 09:11:54;;;;;;;28.50;3.17;;;;;;;28.82;21.21;98981.03;4966411;28;20042;-89
2024/03/21 09:14:20;;;;;;;20.60;3.30;;;;;;;28.24;20.91;98979.75;4948279;28;20402;-92
2024/03/21 09:16:45;;;;;;;12.63;2.90;;;;;;;27.79;20.70;98968.28;4948781;28;20030;-92
2024/03/21 09:19:11;;;;;;;7.93;2.83;;;;;;;28.14;20.02;98967.69;5000251;28;20030;-87
2024/03/21 09:21:36;;;;;;;7.30;2.88;;;;;;;28.24;20.50;98967.16;4978447;28;20038;-87
2024/03/21 09:24:03;;;;;;;5.32;2.85;;;;;;;28.02;21.19;98972.16;4978634;28;20037;-89
2024/03/21 09:26:29;;;;;;;12.43;2.80;;;;;;;27.32;22.93;98965.25;4977706;28;20567;-85
2024/03/21 09:28:55;;;;;;;8.18;2.78;;;;;;;27.15;23.57;98958.78;4961910;28;20285;-83
2024/03/21 09:31:21;;;;;;;4.65;2.70;;;;;;;27.45;22.15;98953.59;4977511;28;20026;-84
2024/03/21 09:33:46;;;;;;;5.50;2.60;;;;;;;27.61;22.24;98955.69;4997671;28;20042;-86
2024/03/21 09:36:11;;;;;;;5.22;2.40;;;;;;;27.08;24.18;98946.28;4995399;28;20387;-79
2024/03/21 09:38:37;;;;;;;7.72;2.50;;;;;;;27.33;23.44;98953.50;4980547;28;20042;-80
2024/03/21 09:41:08;;;;;;;4.88;2.97;;;;;;;27.03;23.11;98947.97;4960334;28;20033;-80
2024/03/21 09:43:36;;;;;;;6.22;2.63;;;;;;;26.68;23.05;98945.78;4945681;28;20045;-82
2024/03/21 09:46:04;;;;;;;7.25;2.67;;;;;;;26.96;22.79;98939.97;4960830;28;20169;-80
2024/03/21 09:48:30;;;;;;;5.40;2.47;;;;;;;26.40;22.82;98932.75;4944522;28;20108;-80
2024/03/21 09:50:55;;;;;;;6.55;2.65;;;;;;;26.20;22.31;98940.88;4960290;28;20037;-84
2024/03/21 09:53:21;;;;;;;4.05;2.50;;;;;;;26.08;22.40;98933.53;4944408;28;20038;-79
2024/03/21 09:55:46;;;;;;;5.22;2.28;;;;;;;26.05;21.83;98927.81;4976147;28;20038;-81
2024/03/21 09:58:13;;;;;;;5.80;2.55;;;;;;;26.25;21.44;98933.03;4944447;28;20034;-79
2024/03/21 10:00:39;;;;;;;4.10;2.45;;;;;;;25.99;20.63;98918.75;4976374;28;20028;-82
2024/03/21 10:03:05;;;;;;;4.28;2.50;;;;;;;25.55;20.93;98923.00;4960451;28;20034;-80
2024/03/21 10:05:31;;;;;;;6.03;2.85;;;;;;;25.15;20.59;98912.38;4960358;28;20474;-78
2024/03/21 10:07:56;;;;;;;6.22;2.70;;;;;;;25.12;20.54;98912.78;4944106;28;20027;-79
2024/03/21 10:10:22;;;;;;;7.63;2.63;;;;;;;24.99;22.74;98906.41;4944433;28;20030;-81
2024/03/21 10:12:47;;;;;;;6.18;3.00;;;;;;;24.74;23.04;98903.56;4976081;28;20040;-83
2024/03/21 10:15:13;;;;;;;8.80;2.78;;;;;;;24.45;23.63;98884.22;4959966;28;20148;-83
2024/03/21 10:17:40;;;;;;;6.03;2.60;;;;;;;24.11;26.42;98895.81;4944285;28;20561;-84
2024/03/21 10:20:06;;;;;;;4.43;2.80;;;;;;;24.41;26.24;98885.63;4944389;28;20037;-82
2024/03/21 10:22:32;;;;;;;8.73;2.70;;;;;;;24.87;26.88;98876.84;4960379;28;20038;-82
2024/03/21 10:24:58;;;;;;;6.18;2.30;;;;;;;25.13;26.64;98861.84;4943536;28;20038;-83
2024/03/21 10:27:23;;;;;;;4.70;2.30;;;;;;;25.32;25.42;98859.34;4944674;28;20026;-82
2024/03/21 10:29:52;;;;;;;10.25;2.33;;;;;;;25.67;26.29;98861.72;4960377;28;20456;-77
2024/03/21 10:32:21;;;;;;;4.93;2.40;;;;;;;25.71;25.43;98854.88;4943019;28;20101;-77
2024/03/21 10:34:54;;;;;;;8.48;2.42;;;;;;;25.60;24.74;98864.38;4945754;28;20053;-85
2024/03/21 10:37:22;;;;;;;4.30;2.35;;;;;;;25.65;24.21;98861.91;4961993;28;20026;-80
2024/03/21 10:39:48;;;;;;;4.78;2.40;;;;;;;25.79;22.88;98871.53;4976157;28;20030;-80
2024/03/21 10:42:29;;;;;;;5.60;2.42;;;;;;;25.65;22.54;98869.94;4960491;28;20030;-80
2024/03/21 10:45:04;;;;;;;2.70;1.90;;;;;;;25.39;21.77;98868.97;4947653;28;20042;-82
2024/03/21 10:47:29;;;;;;;3.55;1.92;;;;;;;25.36;21.21;98857.91;4956480;28;20058;-80
2024/03/21 10:49:55;;;;;;;3.35;2.15;;;;;;;25.46;20.94;98851.09;4941305;28;20033;-81
2024/03/21 10:52:21;;;;;;;5.57;2.10;;;;;;;25.25;20.76;98832.59;4943189;28;20038;-81
2024/03/21 10:54:53;;;;;;;3.38;2.10;;;;;;;25.06;20.79;98855.66;4947193;28;20037;-80
2024/03/21 10:57:22;;;;;;;3.78;2.10;;;;;;;25.00;20.51;98841.31;4941744;28;20027;-80
2024/03/21 11:00:09;;;;;;;3.10;2.13;;;;;;;24.81;20.06;98839.47;4956789;28;20037;-80
2024/03/21 11:02:35;;;;;;;3.47;2.20;;;;;;;24.62;20.56;98830.44;4942507;28;20059;-83
2024/03/21 11:05:12;;;;;;;4.28;2.20;;;;;;;24.45;20.12;98827.34;4940611;28;20109;-80
2024/03/21 11:07:38;;;;;;;4.25;2.72;;;;;;;24.20;20.43;98828.75;4940328;28;20030;-81
2024/03/21 11:10:05;;;;;;;4.05;2.58;;;;;;;24.01;20.59;98827.69;4956142;28;20039;-79
2024/03/21 11:12:31;;;;;;;6.15;2.58;;;;;;;24.02;20.26;98824.03;4972359;28;20034;-80
2024/03/21 11:14:56;;;;;;;3.60;2.40;;;;;;;24.26;20.52;98815.63;4956024;28;20062;-79
2024/03/21 11:17:22;;;;;;;4.53;2.47;;;;;;;24.12;20.65;98812.97;4956264;28;20114;-79
2024/03/21 11:19:51;;;;;;;3.20;2.10;;;;;;;24.06;20.58;98820.94;4972567;28;20475;-79
2024/03/21 11:22:17;;;;;;;3.85;2.20;;;;;;;24.04;20.62;98813.16;4956448;28;20027;-79
2024/03/21 11:24:42;;;;;;;3.35;1.85;;;;;;;24.15;20.48;98809.06;4956313;28;20203;-79
2024/03/21 11:27:18;;;;;;;3.40;1.98;;;;;;;24.32;20.22;98799.66;4955962;28;20026;-80
2024/03/21 11:29:43;;;;;;;3.53;1.70;;;;;;;24.48;20.14;98790.41;4972578;28;20461;-80
2024/03/21 11:32:09;;;;;;;6.15;1.83;;;;;;;24.63;20.20;98790.22;4956249;28;20113;-80